SCEL 191300Z 16007KT 7000 SCT005 BKN010 OVC015 10/08 Q1020 NOSIG